Weather at Corfu Ioannis Kapodistrias International Airport

Public forecast

Using degrees Celsius for public forecast. Weather courtesy of forecast.io.

Current aviation weather report (METAR) for Corfu Ioannis Kapodistrias International Airport

2024/05/30 15:50 (retrieved 31 minutes ago)

LGKR 301550Z 26008KT 9999 FEW020 25/15 Q1010 NOSIG

Aviation forecast (TAF) for Corfu Ioannis Kapodistrias International Airport

2024/05/30 12:12 (retrieved 4 hours ago)

TAF LGKR 301100Z 3012/3112 15010KT 9999 FEW020 BECMG 3021/3023 13007KT